TimeHST,TemperatureF,Dew PointF,Humidity,Sea Level PressureIn,VisibilityMPH,Wind Direction,Wind SpeedMPH,Gust SpeedMPH,PrecipitationIn,Events,Conditions,WindDirDegrees,DateUTC
12:56 AM,65.8,63.0,90,30.02,10.0,Calm,Calm,-,N/A,,Clear,0,2013-12-14 10:56:00
1:56 AM,65.8,65.8,100,29.99,10.0,NE,5.8,-,N/A,,Clear,40,2013-12-14 11:56:00
2:56 AM,63.0,63.0,100,29.98,10.0,East,4.6,-,N/A,,Clear,90,2013-12-14 12:56:00
3:56 AM,63.9,63.9,100,29.97,10.0,ENE,3.5,-,N/A,,Clear,60,2013-12-14 13:56:00
4:56 AM,63.9,63.9,100,29.98,10.0,East,4.6,-,N/A,,Clear,80,2013-12-14 14:56:00
5:56 AM,63.0,63.0,100,29.99,10.0,East,5.8,-,N/A,,Clear,80,2013-12-14 15:56:00
6:41 AM,64.4,64.4,100,30.04,10.0,East,5.8,-,N/A,,Mostly Cloudy,90,2013-12-14 16:41:00
6:56 AM,63.9,63.9,100,30.00,10.0,ESE,5.8,-,N/A,,Scattered Clouds,120,2013-12-14 16:56:00
7:56 AM,66.9,66.9,100,30.01,10.0,Calm,Calm,-,N/A,,Clear,0,2013-12-14 17:56:00
8:56 AM,77.0,63.9,64,30.01,10.0,Calm,Calm,-,N/A,,Clear,0,2013-12-14 18:56:00
9:49 AM,75.2,64.4,69,30.07,10.0,SSW,5.8,-,N/A,,Mostly Cloudy,210,2013-12-14 19:49:00
9:56 AM,73.9,63.0,68,30.02,10.0,SSE,10.4,-,N/A,,Mostly Cloudy,160,2013-12-14 19:56:00
10:24 AM,73.4,62.6,69,30.07,10.0,Calm,Calm,-,N/A,,Overcast,0,2013-12-14 20:24:00
10:56 AM,81.9,61.9,51,29.99,10.0,WNW,9.2,-,N/A,,Scattered Clouds,290,2013-12-14 20:56:00
11:56 AM,81.0,61.9,52,29.96,10.0,Variable,4.6,-,N/A,,Clear,0,2013-12-14 21:56:00
12:56 PM,77.0,61.9,59,29.93,10.0,West,6.9,-,N/A,,Clear,270,2013-12-14 22:56:00
1:56 PM,77.9,63.0,60,29.92,10.0,SSW,3.5,-,N/A,,Mostly Cloudy,200,2013-12-14 23:56:00
2:13 PM,75.2,62.6,65,29.97,10.0,ESE,8.1,-,N/A,,Overcast,120,2013-12-15 00:13:00
2:56 PM,74.8,61.9,64,29.92,10.0,ESE,5.8,-,N/A,,Overcast,110,2013-12-15 00:56:00
3:56 PM,74.8,61.0,62,29.92,10.0,SE,3.5,-,N/A,,Overcast,130,2013-12-15 01:56:00
4:28 PM,75.2,60.8,61,29.98,10.0,ESE,6.9,-,N/A,,Overcast,120,2013-12-15 02:28:00
4:56 PM,74.8,59.9,60,29.93,10.0,ESE,5.8,-,N/A,,Overcast,120,2013-12-15 02:56:00
5:56 PM,72.9,63.0,71,29.94,10.0,WNW,3.5,-,N/A,,Partly Cloudy,290,2013-12-15 03:56:00
6:56 PM,68.9,63.9,84,29.97,10.0,North,3.5,-,N/A,,Scattered Clouds,360,2013-12-15 04:56:00
7:56 PM,68.0,63.0,84,29.97,10.0,NNE,5.8,-,N/A,,Partly Cloudy,30,2013-12-15 05:56:00
8:56 PM,68.0,64.9,90,29.97,10.0,NE,5.8,-,N/A,,Mostly Cloudy,40,2013-12-15 06:56:00
9:56 PM,65.8,64.9,97,29.99,10.0,NE,5.8,-,N/A,,Clear,40,2013-12-15 07:56:00
10:56 PM,64.9,63.9,96,29.97,10.0,Calm,Calm,-,N/A,,Scattered Clouds,0,2013-12-15 08:56:00
11:56 PM,64.9,61.9,90,29.96,10.0,East,4.6,-,N/A,,Partly Cloudy,80,2013-12-15 09:56:00